Lansing, MI (48919)

12:05 PM EST on February 13, 2016 (GMT -0500)
Walsh | | Change Station
CLOSE
Current Station
Personal Weather Station
Location: Lansing, MI
Elevation: 863 ft
Nearby Weather Stations

Elev 863 ft 42.72 °N, 84.54 °W | Updated 8 minutes ago

Overcast
Overcast
12.4 °F
Feels Like 2 °F
N
7.0
Wind Variable Wind from West
Gusts 16.0 mph

Today
High -- | Low -- °F
--% Chance of Precip.
Yesterday
High -- | Low -- °F
Precip. -- in
Pressure 30.50 in
Visibility 10.0 miles
Clouds Mostly Cloudy 4000 ft
Overcast 5000 ft
Windchill 2 °F
Dew Point 2 °F
Humidity 62%
Rainfall 0.00 in
Snow Depth Not available.
7:38 AM 6:06 PM
Waxing Crescent, 32% visible
METAR KLAN 131653Z 32009G18KT 10SM BKN040 OVC050 M11/M19 A3044 RMK AO2 UPB27E36SNB38E47 SLP326 P0000 T11061189 $
Pressure 30.50 in
Visibility 10.0 miles
Clouds Mostly Cloudy 4000 ft
Overcast 5000 ft
Windchill 2 °F
Dew Point 2 °F
Humidity 62%
Rainfall 0.00 in
Snow Depth Not available.
7:38 AM 6:06 PM
Waxing Crescent, 32% visible
METAR KLAN 131653Z 32009G18KT 10SM BKN040 OVC050 M11/M19 A3044 RMK AO2 UPB27E36SNB38E47 SLP326 P0000 T11061189 $

10-Day Weather Forecast

Almanac

Astronomy

Feb. 13, 2016 Rise Set
Actual Time
Civil Twilight
Nautical Twilight
Astronomical Twilight
Moon
Length of Visible Light
Length of Day
Tomorrow will be .
, % of the Moon is Illuminated

Today's Extremes

State Highs State Lows

Community

WunderPhotos

Upload Photos

1,892,611 photos uploaded!

WunderBlog® & News

Nearby

Air Quality

  Air Quality AQ Index Pollutant
Not available.

Snow Depth

Station Depth Elevation

Earthquake Activity

City Distance Mag. Time & Date
Minimum magnitude displayed is 2.5.

Coastal Water Temperatures

Place Temperature

Stations

Nearby Weather Stations

Station Location Temp. Windchill Dew Point Humidity Wind Precip. Elev Updated Type
                   

Watches & Warnings

There are currently no watches in effect.